sensor_id;sensor_type;location;lat;lon;timestamp;P1;durP1;ratioP1;P2;durP2;ratioP2
51146;SDS011;37207;53.060;18.726;2023-04-24T00:01:20;19.20;;;14.70;;
51146;SDS011;37207;53.060;18.726;2023-04-24T00:03:46;48.80;;;20.00;;
51146;SDS011;37207;53.060;18.726;2023-04-24T00:06:13;27.80;;;17.50;;
51146;SDS011;37207;53.060;18.726;2023-04-24T00:08:39;19.00;;;15.20;;
51146;SDS011;37207;53.060;18.726;2023-04-24T00:11:06;19.30;;;14.60;;
51146;SDS011;37207;53.060;18.726;2023-04-24T00:13:33;13.70;;;12.30;;
51146;SDS011;37207;53.060;18.726;2023-04-24T00:15:59;13.90;;;12.20;;
51146;SDS011;37207;53.060;18.726;2023-04-24T00:18:26;18.30;;;12.90;;
51146;SDS011;37207;53.060;18.726;2023-04-24T00:20:53;18.90;;;12.80;;
51146;SDS011;37207;53.060;18.726;2023-04-24T00:23:19;17.00;;;13.10;;
51146;SDS011;37207;53.060;18.726;2023-04-24T00:25:46;16.60;;;13.10;;
51146;SDS011;37207;53.060;18.726;2023-04-24T00:28:12;18.70;;;12.40;;
51146;SDS011;37207;53.060;18.726;2023-04-24T00:30:39;20.20;;;13.10;;
51146;SDS011;37207;53.060;18.726;2023-04-24T00:33:06;25.30;;;17.70;;
51146;SDS011;37207;53.060;18.726;2023-04-24T00:35:34;15.60;;;13.80;;
51146;SDS011;37207;53.060;18.726;2023-04-24T00:38:00;25.30;;;12.60;;
51146;SDS011;37207;53.060;18.726;2023-04-24T00:40:27;12.80;;;11.50;;
51146;SDS011;37207;53.060;18.726;2023-04-24T00:42:54;12.50;;;11.30;;
51146;SDS011;37207;53.060;18.726;2023-04-24T00:45:21;11.80;;;10.80;;
51146;SDS011;37207;53.060;18.726;2023-04-24T00:47:48;12.00;;;11.00;;
51146;SDS011;37207;53.060;18.726;2023-04-24T00:50:17;12.50;;;11.20;;
51146;SDS011;37207;53.060;18.726;2023-04-24T00:52:44;12.40;;;11.40;;
51146;SDS011;37207;53.060;18.726;2023-04-24T00:55:10;12.30;;;10.50;;
51146;SDS011;37207;53.060;18.726;2023-04-24T00:57:37;11.60;;;10.60;;
51146;SDS011;37207;53.060;18.726;2023-04-24T01:00:05;11.30;;;10.00;;
51146;SDS011;37207;53.060;18.726;2023-04-24T01:02:37;11.90;;;10.30;;
51146;SDS011;37207;53.060;18.726;2023-04-24T01:05:07;11.30;;;10.20;;
51146;SDS011;37207;53.060;18.726;2023-04-24T01:07:34;10.40;;;9.70;;
51146;SDS011;37207;53.060;18.726;2023-04-24T01:10:02;9.70;;;9.00;;
51146;SDS011;37207;53.060;18.726;2023-04-24T01:12:28;10.70;;;9.70;;
51146;SDS011;37207;53.060;18.726;2023-04-24T01:14:55;10.60;;;9.60;;
51146;SDS011;37207;53.060;18.726;2023-04-24T01:17:23;11.30;;;10.10;;
51146;SDS011;37207;53.060;18.726;2023-04-24T01:19:49;11.60;;;10.60;;
51146;SDS011;37207;53.060;18.726;2023-04-24T01:22:20;11.30;;;10.40;;
51146;SDS011;37207;53.060;18.726;2023-04-24T01:24:47;11.50;;;10.70;;
51146;SDS011;37207;53.060;18.726;2023-04-24T01:27:13;12.60;;;11.50;;
51146;SDS011;37207;53.060;18.726;2023-04-24T01:29:40;12.60;;;11.50;;
51146;SDS011;37207;53.060;18.726;2023-04-24T01:32:09;14.40;;;10.70;;
51146;SDS011;37207;53.060;18.726;2023-04-24T01:34:37;18.00;;;11.70;;
51146;SDS011;37207;53.060;18.726;2023-04-24T01:37:04;11.60;;;10.70;;
51146;SDS011;37207;53.060;18.726;2023-04-24T01:39:31;12.90;;;11.90;;
51146;SDS011;37207;53.060;18.726;2023-04-24T01:41:59;13.30;;;12.20;;
51146;SDS011;37207;53.060;18.726;2023-04-24T01:44:26;14.00;;;12.80;;
51146;SDS011;37207;53.060;18.726;2023-04-24T01:46:54;12.20;;;11.20;;
51146;SDS011;37207;53.060;18.726;2023-04-24T01:49:22;12.90;;;11.60;;
51146;SDS011;37207;53.060;18.726;2023-04-24T01:51:48;11.40;;;10.60;;
51146;SDS011;37207;53.060;18.726;2023-04-24T01:54:15;12.10;;;11.10;;
51146;SDS011;37207;53.060;18.726;2023-04-24T01:56:42;11.70;;;10.60;;
51146;SDS011;37207;53.060;18.726;2023-04-24T01:59:09;11.70;;;10.40;;
51146;SDS011;37207;53.060;18.726;2023-04-24T02:01:37;12.10;;;11.10;;
51146;SDS011;37207;53.060;18.726;2023-04-24T02:04:05;11.50;;;10.40;;
51146;SDS011;37207;53.060;18.726;2023-04-24T02:06:33;11.90;;;10.70;;
51146;SDS011;37207;53.060;18.726;2023-04-24T02:09:00;11.30;;;10.50;;
51146;SDS011;37207;53.060;18.726;2023-04-24T02:11:28;12.80;;;11.50;;
51146;SDS011;37207;53.060;18.726;2023-04-24T02:13:55;12.60;;;11.10;;
51146;SDS011;37207;53.060;18.726;2023-04-24T02:16:21;12.30;;;11.20;;
51146;SDS011;37207;53.060;18.726;2023-04-24T02:18:48;12.50;;;11.50;;
51146;SDS011;37207;53.060;18.726;2023-04-24T02:21:14;13.60;;;11.50;;
51146;SDS011;37207;53.060;18.726;2023-04-24T02:23:42;12.10;;;11.20;;
51146;SDS011;37207;53.060;18.726;2023-04-24T02:26:09;12.60;;;11.50;;
51146;SDS011;37207;53.060;18.726;2023-04-24T02:28:36;12.80;;;10.50;;
51146;SDS011;37207;53.060;18.726;2023-04-24T02:31:03;12.70;;;11.60;;
51146;SDS011;37207;53.060;18.726;2023-04-24T02:33:30;12.10;;;11.10;;
51146;SDS011;37207;53.060;18.726;2023-04-24T02:35:56;13.30;;;12.00;;
51146;SDS011;37207;53.060;18.726;2023-04-24T02:38:23;21.30;;;11.60;;
51146;SDS011;37207;53.060;18.726;2023-04-24T02:40:49;12.50;;;11.40;;
51146;SDS011;37207;53.060;18.726;2023-04-24T02:43:16;15.30;;;11.30;;
51146;SDS011;37207;53.060;18.726;2023-04-24T02:45:42;12.70;;;11.50;;
51146;SDS011;37207;53.060;18.726;2023-04-24T02:48:09;12.50;;;11.40;;
51146;SDS011;37207;53.060;18.726;2023-04-24T02:50:35;14.20;;;11.80;;
51146;SDS011;37207;53.060;18.726;2023-04-24T02:53:02;12.40;;;11.50;;
51146;SDS011;37207;53.060;18.726;2023-04-24T02:55:28;12.70;;;11.80;;
51146;SDS011;37207;53.060;18.726;2023-04-24T02:57:55;12.10;;;11.00;;
51146;SDS011;37207;53.060;18.726;2023-04-24T03:00:21;14.10;;;11.80;;
51146;SDS011;37207;53.060;18.726;2023-04-24T03:02:48;18.80;;;12.40;;
51146;SDS011;37207;53.060;18.726;2023-04-24T03:05:16;14.60;;;12.30;;
51146;SDS011;37207;53.060;18.726;2023-04-24T03:07:42;14.40;;;12.80;;
51146;SDS011;37207;53.060;18.726;2023-04-24T03:10:09;20.40;;;12.90;;
51146;SDS011;37207;53.060;18.726;2023-04-24T03:12:36;16.60;;;12.50;;
51146;SDS011;37207;53.060;18.726;2023-04-24T03:15:02;15.60;;;13.00;;
51146;SDS011;37207;53.060;18.726;2023-04-24T03:17:29;21.30;;;13.70;;
51146;SDS011;37207;53.060;18.726;2023-04-24T03:19:56;15.80;;;12.70;;
51146;SDS011;37207;53.060;18.726;2023-04-24T03:22:22;14.30;;;12.90;;
51146;SDS011;37207;53.060;18.726;2023-04-24T03:24:49;14.80;;;12.90;;
51146;SDS011;37207;53.060;18.726;2023-04-24T03:27:17;14.30;;;13.00;;
51146;SDS011;37207;53.060;18.726;2023-04-24T03:29:53;18.50;;;13.00;;
51146;SDS011;37207;53.060;18.726;2023-04-24T03:32:24;18.20;;;13.30;;
51146;SDS011;37207;53.060;18.726;2023-04-24T03:34:52;16.40;;;12.50;;
51146;SDS011;37207;53.060;18.726;2023-04-24T03:37:18;14.80;;;12.10;;
51146;SDS011;37207;53.060;18.726;2023-04-24T03:39:51;16.50;;;13.40;;
51146;SDS011;37207;53.060;18.726;2023-04-24T03:42:19;21.20;;;14.70;;
51146;SDS011;37207;53.060;18.726;2023-04-24T03:44:50;15.80;;;14.30;;
51146;SDS011;37207;53.060;18.726;2023-04-24T03:47:18;22.20;;;14.50;;
51146;SDS011;37207;53.060;18.726;2023-04-24T03:49:46;16.80;;;13.10;;
51146;SDS011;37207;53.060;18.726;2023-04-24T03:52:12;15.20;;;13.00;;
51146;SDS011;37207;53.060;18.726;2023-04-24T03:54:39;14.60;;;13.10;;
51146;SDS011;37207;53.060;18.726;2023-04-24T03:57:06;15.20;;;13.40;;
51146;SDS011;37207;53.060;18.726;2023-04-24T03:59:33;19.90;;;14.30;;
51146;SDS011;37207;53.060;18.726;2023-04-24T04:02:09;13.90;;;12.80;;
51146;SDS011;37207;53.060;18.726;2023-04-24T04:04:35;15.10;;;13.60;;
51146;SDS011;37207;53.060;18.726;2023-04-24T04:07:02;15.00;;;13.60;;
51146;SDS011;37207;53.060;18.726;2023-04-24T04:09:29;15.10;;;13.80;;
51146;SDS011;37207;53.060;18.726;2023-04-24T04:11:55;14.80;;;13.30;;
51146;SDS011;37207;53.060;18.726;2023-04-24T04:14:22;14.20;;;12.80;;
51146;SDS011;37207;53.060;18.726;2023-04-24T04:16:49;16.20;;;14.00;;
51146;SDS011;37207;53.060;18.726;2023-04-24T04:19:16;18.10;;;13.90;;
51146;SDS011;37207;53.060;18.726;2023-04-24T04:21:43;19.60;;;13.90;;
51146;SDS011;37207;53.060;18.726;2023-04-24T04:24:21;14.10;;;13.00;;
51146;SDS011;37207;53.060;18.726;2023-04-24T04:26:49;24.50;;;13.70;;
51146;SDS011;37207;53.060;18.726;2023-04-24T04:29:30;14.80;;;13.60;;
51146;SDS011;37207;53.060;18.726;2023-04-24T04:32:01;15.50;;;13.90;;
51146;SDS011;37207;53.060;18.726;2023-04-24T04:34:29;15.60;;;14.00;;
51146;SDS011;37207;53.060;18.726;2023-04-24T04:36:56;23.70;;;15.40;;
51146;SDS011;37207;53.060;18.726;2023-04-24T04:39:45;21.00;;;14.40;;
51146;SDS011;37207;53.060;18.726;2023-04-24T04:42:18;14.40;;;12.90;;
51146;SDS011;37207;53.060;18.726;2023-04-24T04:44:45;19.50;;;13.60;;
51146;SDS011;37207;53.060;18.726;2023-04-24T04:47:16;14.80;;;13.30;;
51146;SDS011;37207;53.060;18.726;2023-04-24T04:49:44;15.50;;;12.60;;
51146;SDS011;37207;53.060;18.726;2023-04-24T04:52:19;18.30;;;13.70;;
51146;SDS011;37207;53.060;18.726;2023-04-24T04:54:47;19.90;;;13.70;;
51146;SDS011;37207;53.060;18.726;2023-04-24T04:57:14;15.40;;;13.00;;
51146;SDS011;37207;53.060;18.726;2023-04-24T04:59:41;13.40;;;11.90;;
51146;SDS011;37207;53.060;18.726;2023-04-24T05:02:10;18.50;;;12.70;;
51146;SDS011;37207;53.060;18.726;2023-04-24T05:04:40;14.10;;;12.70;;
51146;SDS011;37207;53.060;18.726;2023-04-24T05:07:06;13.10;;;12.00;;
51146;SDS011;37207;53.060;18.726;2023-04-24T05:09:33;14.40;;;12.20;;
51146;SDS011;37207;53.060;18.726;2023-04-24T05:12:05;14.60;;;13.40;;
51146;SDS011;37207;53.060;18.726;2023-04-24T05:14:35;14.10;;;12.80;;
51146;SDS011;37207;53.060;18.726;2023-04-24T05:17:01;16.70;;;13.10;;
51146;SDS011;37207;53.060;18.726;2023-04-24T05:19:29;13.10;;;12.10;;
51146;SDS011;37207;53.060;18.726;2023-04-24T05:21:59;101.00;;;13.90;;
51146;SDS011;37207;53.060;18.726;2023-04-24T05:24:30;13.20;;;11.90;;
51146;SDS011;37207;53.060;18.726;2023-04-24T05:27:05;14.60;;;10.80;;
51146;SDS011;37207;53.060;18.726;2023-04-24T05:29:38;12.90;;;11.00;;
51146;SDS011;37207;53.060;18.726;2023-04-24T05:32:06;12.50;;;11.50;;
51146;SDS011;37207;53.060;18.726;2023-04-24T05:34:32;14.10;;;12.70;;
51146;SDS011;37207;53.060;18.726;2023-04-24T05:36:59;15.40;;;13.80;;
51146;SDS011;37207;53.060;18.726;2023-04-24T05:39:26;15.60;;;14.20;;
51146;SDS011;37207;53.060;18.726;2023-04-24T05:41:53;24.80;;;16.60;;
51146;SDS011;37207;53.060;18.726;2023-04-24T05:44:24;27.20;;;15.80;;
51146;SDS011;37207;53.060;18.726;2023-04-24T05:46:50;20.50;;;15.90;;
51146;SDS011;37207;53.060;18.726;2023-04-24T05:49:17;19.10;;;16.30;;
51146;SDS011;37207;53.060;18.726;2023-04-24T05:51:45;18.00;;;16.00;;
51146;SDS011;37207;53.060;18.726;2023-04-24T05:54:11;17.90;;;16.10;;
51146;SDS011;37207;53.060;18.726;2023-04-24T05:56:38;16.80;;;15.10;;
51146;SDS011;37207;53.060;18.726;2023-04-24T05:59:06;24.00;;;15.50;;
51146;SDS011;37207;53.060;18.726;2023-04-24T06:01:34;18.00;;;13.40;;
51146;SDS011;37207;53.060;18.726;2023-04-24T06:04:11;16.70;;;12.10;;
51146;SDS011;37207;53.060;18.726;2023-04-24T06:06:39;15.40;;;11.80;;
51146;SDS011;37207;53.060;18.726;2023-04-24T06:09:06;13.90;;;11.00;;
51146;SDS011;37207;53.060;18.726;2023-04-24T06:11:34;12.90;;;11.30;;
51146;SDS011;37207;53.060;18.726;2023-04-24T06:14:01;11.30;;;10.20;;
51146;SDS011;37207;53.060;18.726;2023-04-24T06:16:37;11.10;;;10.10;;
51146;SDS011;37207;53.060;18.726;2023-04-24T06:19:11;10.80;;;9.80;;
51146;SDS011;37207;53.060;18.726;2023-04-24T06:21:37;13.40;;;8.80;;
51146;SDS011;37207;53.060;18.726;2023-04-24T06:24:05;10.00;;;8.90;;
51146;SDS011;37207;53.060;18.726;2023-04-24T06:26:32;9.10;;;8.30;;
51146;SDS011;37207;53.060;18.726;2023-04-24T06:29:00;10.00;;;8.40;;
51146;SDS011;37207;53.060;18.726;2023-04-24T06:31:26;9.50;;;8.80;;
51146;SDS011;37207;53.060;18.726;2023-04-24T06:33:54;10.00;;;8.00;;
51146;SDS011;37207;53.060;18.726;2023-04-24T06:36:20;9.40;;;8.30;;
51146;SDS011;37207;53.060;18.726;2023-04-24T06:38:47;10.10;;;8.60;;
51146;SDS011;37207;53.060;18.726;2023-04-24T06:41:14;9.20;;;8.40;;
51146;SDS011;37207;53.060;18.726;2023-04-24T06:43:40;8.80;;;8.10;;
51146;SDS011;37207;53.060;18.726;2023-04-24T06:46:07;9.20;;;8.30;;
51146;SDS011;37207;53.060;18.726;2023-04-24T06:48:34;8.40;;;7.50;;
51146;SDS011;37207;53.060;18.726;2023-04-24T06:51:01;8.40;;;7.60;;
51146;SDS011;37207;53.060;18.726;2023-04-24T06:53:27;8.60;;;7.90;;
51146;SDS011;37207;53.060;18.726;2023-04-24T06:55:54;9.60;;;8.10;;
51146;SDS011;37207;53.060;18.726;2023-04-24T06:58:21;10.50;;;8.30;;
51146;SDS011;37207;53.060;18.726;2023-04-24T07:00:47;11.40;;;8.20;;
51146;SDS011;37207;53.060;18.726;2023-04-24T07:03:14;9.80;;;8.20;;
51146;SDS011;37207;53.060;18.726;2023-04-24T07:05:41;9.00;;;7.80;;
51146;SDS011;37207;53.060;18.726;2023-04-24T07:08:07;9.30;;;7.90;;
51146;SDS011;37207;53.060;18.726;2023-04-24T07:10:34;9.90;;;8.40;;
51146;SDS011;37207;53.060;18.726;2023-04-24T07:13:01;9.70;;;8.60;;
51146;SDS011;37207;53.060;18.726;2023-04-24T07:15:29;9.90;;;8.80;;
51146;SDS011;37207;53.060;18.726;2023-04-24T07:17:56;9.40;;;8.00;;
51146;SDS011;37207;53.060;18.726;2023-04-24T07:20:22;9.90;;;8.20;;
51146;SDS011;37207;53.060;18.726;2023-04-24T07:22:49;9.40;;;8.50;;
51146;SDS011;37207;53.060;18.726;2023-04-24T07:25:16;10.10;;;8.80;;
51146;SDS011;37207;53.060;18.726;2023-04-24T07:27:42;9.70;;;8.90;;
51146;SDS011;37207;53.060;18.726;2023-04-24T07:30:09;9.50;;;8.60;;
51146;SDS011;37207;53.060;18.726;2023-04-24T07:32:36;11.60;;;8.20;;
51146;SDS011;37207;53.060;18.726;2023-04-24T07:35:02;8.90;;;8.20;;
51146;SDS011;37207;53.060;18.726;2023-04-24T07:37:29;8.80;;;8.00;;
51146;SDS011;37207;53.060;18.726;2023-04-24T07:39:56;11.00;;;7.20;;
51146;SDS011;37207;53.060;18.726;2023-04-24T07:42:23;6.10;;;5.60;;
51146;SDS011;37207;53.060;18.726;2023-04-24T07:44:49;17.90;;;5.70;;
51146;SDS011;37207;53.060;18.726;2023-04-24T07:47:17;5.20;;;4.80;;
51146;SDS011;37207;53.060;18.726;2023-04-24T07:49:44;6.70;;;5.40;;
51146;SDS011;37207;53.060;18.726;2023-04-24T07:52:10;6.40;;;4.60;;
51146;SDS011;37207;53.060;18.726;2023-04-24T07:54:37;5.40;;;4.90;;
51146;SDS011;37207;53.060;18.726;2023-04-24T07:57:03;5.10;;;4.70;;
51146;SDS011;37207;53.060;18.726;2023-04-24T07:59:30;6.30;;;5.00;;
51146;SDS011;37207;53.060;18.726;2023-04-24T08:01:57;6.80;;;4.50;;
51146;SDS011;37207;53.060;18.726;2023-04-24T08:04:24;7.70;;;4.40;;
51146;SDS011;37207;53.060;18.726;2023-04-24T08:06:50;10.50;;;4.60;;
51146;SDS011;37207;53.060;18.726;2023-04-24T08:09:17;5.00;;;4.10;;
51146;SDS011;37207;53.060;18.726;2023-04-24T08:11:43;4.50;;;4.10;;
51146;SDS011;37207;53.060;18.726;2023-04-24T08:14:10;4.10;;;3.80;;
51146;SDS011;37207;53.060;18.726;2023-04-24T08:16:38;4.10;;;3.80;;
51146;SDS011;37207;53.060;18.726;2023-04-24T08:19:05;4.10;;;3.80;;
51146;SDS011;37207;53.060;18.726;2023-04-24T08:21:31;10.50;;;4.00;;
51146;SDS011;37207;53.060;18.726;2023-04-24T08:23:58;5.00;;;4.10;;
51146;SDS011;37207;53.060;18.726;2023-04-24T08:26:25;7.30;;;3.70;;
51146;SDS011;37207;53.060;18.726;2023-04-24T08:28:51;7.10;;;4.30;;
51146;SDS011;37207;53.060;18.726;2023-04-24T08:31:18;5.30;;;4.00;;
51146;SDS011;37207;53.060;18.726;2023-04-24T08:33:44;8.00;;;3.90;;
51146;SDS011;37207;53.060;18.726;2023-04-24T08:36:12;4.70;;;3.80;;
51146;SDS011;37207;53.060;18.726;2023-04-24T08:38:38;7.20;;;4.00;;
51146;SDS011;37207;53.060;18.726;2023-04-24T08:41:05;6.00;;;3.00;;
51146;SDS011;37207;53.060;18.726;2023-04-24T08:43:33;6.20;;;3.20;;
51146;SDS011;37207;53.060;18.726;2023-04-24T08:46:03;9.80;;;3.20;;
51146;SDS011;37207;53.060;18.726;2023-04-24T08:48:30;9.10;;;3.10;;
51146;SDS011;37207;53.060;18.726;2023-04-24T08:50:58;8.40;;;3.30;;
51146;SDS011;37207;53.060;18.726;2023-04-24T08:53:25;4.00;;;3.30;;
51146;SDS011;37207;53.060;18.726;2023-04-24T08:55:53;3.10;;;2.60;;
51146;SDS011;37207;53.060;18.726;2023-04-24T08:58:22;8.90;;;1.80;;
51146;SDS011;37207;53.060;18.726;2023-04-24T09:00:55;2.40;;;2.20;;
51146;SDS011;37207;53.060;18.726;2023-04-24T09:03:23;2.90;;;2.70;;
51146;SDS011;37207;53.060;18.726;2023-04-24T09:05:50;6.40;;;2.90;;
51146;SDS011;37207;53.060;18.726;2023-04-24T09:10:46;5.60;;;3.70;;
51146;SDS011;37207;53.060;18.726;2023-04-24T09:13:12;5.70;;;3.30;;
51146;SDS011;37207;53.060;18.726;2023-04-24T09:15:39;4.70;;;4.10;;
51146;SDS011;37207;53.060;18.726;2023-04-24T09:18:07;3.30;;;3.10;;
51146;SDS011;37207;53.060;18.726;2023-04-24T09:20:33;8.10;;;4.30;;
51146;SDS011;37207;53.060;18.726;2023-04-24T09:25:32;3.60;;;3.30;;
51146;SDS011;37207;53.060;18.726;2023-04-24T09:28:00;5.70;;;2.50;;
51146;SDS011;37207;53.060;18.726;2023-04-24T09:30:29;2.20;;;2.00;;
51146;SDS011;37207;53.060;18.726;2023-04-24T09:33:14;2.00;;;1.70;;
51146;SDS011;37207;53.060;18.726;2023-04-24T09:35:42;2.50;;;2.30;;
51146;SDS011;37207;53.060;18.726;2023-04-24T09:38:14;5.10;;;3.10;;
51146;SDS011;37207;53.060;18.726;2023-04-24T09:40:41;6.60;;;3.10;;
51146;SDS011;37207;53.060;18.726;2023-04-24T09:43:10;3.00;;;2.80;;
51146;SDS011;37207;53.060;18.726;2023-04-24T09:45:38;3.60;;;2.70;;
51146;SDS011;37207;53.060;18.726;2023-04-24T09:48:09;3.40;;;2.60;;
51146;SDS011;37207;53.060;18.726;2023-04-24T09:50:37;3.00;;;2.80;;
51146;SDS011;37207;53.060;18.726;2023-04-24T09:53:05;9.20;;;3.30;;
51146;SDS011;37207;53.060;18.726;2023-04-24T09:55:39;7.60;;;3.00;;
51146;SDS011;37207;53.060;18.726;2023-04-24T09:58:16;6.30;;;2.60;;
51146;SDS011;37207;53.060;18.726;2023-04-24T10:00:55;9.80;;;2.90;;
51146;SDS011;37207;53.060;18.726;2023-04-24T10:03:24;6.60;;;3.00;;
51146;SDS011;37207;53.060;18.726;2023-04-24T10:05:57;6.40;;;3.20;;
51146;SDS011;37207;53.060;18.726;2023-04-24T10:08:25;3.90;;;3.00;;
51146;SDS011;37207;53.060;18.726;2023-04-24T10:11:00;5.80;;;2.90;;
51146;SDS011;37207;53.060;18.726;2023-04-24T10:13:28;8.20;;;3.50;;
51146;SDS011;37207;53.060;18.726;2023-04-24T10:15:55;12.80;;;3.10;;
51146;SDS011;37207;53.060;18.726;2023-04-24T10:18:29;6.10;;;3.60;;
51146;SDS011;37207;53.060;18.726;2023-04-24T10:20:56;5.20;;;4.60;;
51146;SDS011;37207;53.060;18.726;2023-04-24T10:23:24;7.40;;;6.70;;
51146;SDS011;37207;53.060;18.726;2023-04-24T10:25:53;12.10;;;11.00;;
51146;SDS011;37207;53.060;18.726;2023-04-24T10:28:20;11.30;;;10.00;;
51146;SDS011;37207;53.060;18.726;2023-04-24T10:30:47;5.50;;;4.80;;
51146;SDS011;37207;53.060;18.726;2023-04-24T10:33:23;6.40;;;4.90;;
51146;SDS011;37207;53.060;18.726;2023-04-24T10:35:58;7.60;;;6.90;;
51146;SDS011;37207;53.060;18.726;2023-04-24T10:38:34;11.30;;;6.20;;
51146;SDS011;37207;53.060;18.726;2023-04-24T10:41:10;5.60;;;5.20;;
51146;SDS011;37207;53.060;18.726;2023-04-24T10:44:10;5.20;;;4.70;;
51146;SDS011;37207;53.060;18.726;2023-04-24T10:46:39;5.40;;;4.60;;
51146;SDS011;37207;53.060;18.726;2023-04-24T10:49:29;4.80;;;4.30;;
51146;SDS011;37207;53.060;18.726;2023-04-24T10:52:00;5.00;;;4.20;;
51146;SDS011;37207;53.060;18.726;2023-04-24T10:57:25;5.90;;;4.40;;
51146;SDS011;37207;53.060;18.726;2023-04-24T11:00:11;6.00;;;4.90;;
51146;SDS011;37207;53.060;18.726;2023-04-24T11:02:45;4.90;;;4.40;;
51146;SDS011;37207;53.060;18.726;2023-04-24T11:05:50;4.80;;;4.50;;
51146;SDS011;37207;53.060;18.726;2023-04-24T11:08:15;6.80;;;4.90;;
51146;SDS011;37207;53.060;18.726;2023-04-24T11:10:54;5.40;;;5.00;;
51146;SDS011;37207;53.060;18.726;2023-04-24T11:16:29;10.10;;;5.00;;
51146;SDS011;37207;53.060;18.726;2023-04-24T11:19:00;5.60;;;5.00;;
51146;SDS011;37207;53.060;18.726;2023-04-24T11:21:47;8.30;;;5.00;;
51146;SDS011;37207;53.060;18.726;2023-04-24T11:27:16;6.90;;;6.20;;
51146;SDS011;37207;53.060;18.726;2023-04-24T11:29:47;5.50;;;5.10;;
51146;SDS011;37207;53.060;18.726;2023-04-24T11:34:51;14.50;;;5.30;;
51146;SDS011;37207;53.060;18.726;2023-04-24T11:37:28;7.60;;;4.20;;
51146;SDS011;37207;53.060;18.726;2023-04-24T11:40:03;6.50;;;4.30;;
51146;SDS011;37207;53.060;18.726;2023-04-24T11:42:34;4.70;;;4.20;;
51146;SDS011;37207;53.060;18.726;2023-04-24T11:45:01;10.80;;;4.00;;
51146;SDS011;37207;53.060;18.726;2023-04-24T11:47:34;3.60;;;3.20;;
51146;SDS011;37207;53.060;18.726;2023-04-24T11:50:01;8.10;;;4.30;;
51146;SDS011;37207;53.060;18.726;2023-04-24T11:52:29;7.40;;;3.80;;
51146;SDS011;37207;53.060;18.726;2023-04-24T11:54:57;6.10;;;3.90;;
51146;SDS011;37207;53.060;18.726;2023-04-24T11:57:24;4.70;;;4.20;;
51146;SDS011;37207;53.060;18.726;2023-04-24T11:59:55;4.00;;;3.60;;
51146;SDS011;37207;53.060;18.726;2023-04-24T12:02:26;5.90;;;3.60;;
51146;SDS011;37207;53.060;18.726;2023-04-24T12:04:53;3.50;;;3.30;;
51146;SDS011;37207;53.060;18.726;2023-04-24T12:07:21;3.40;;;3.10;;
51146;SDS011;37207;53.060;18.726;2023-04-24T12:09:58;17.50;;;15.30;;
51146;SDS011;37207;53.060;18.726;2023-04-24T12:12:26;6.70;;;6.20;;
51146;SDS011;37207;53.060;18.726;2023-04-24T12:14:57;6.70;;;3.70;;
51146;SDS011;37207;53.060;18.726;2023-04-24T12:17:25;7.90;;;3.20;;
51146;SDS011;37207;53.060;18.726;2023-04-24T12:19:57;4.30;;;3.70;;
51146;SDS011;37207;53.060;18.726;2023-04-24T12:25:12;8.30;;;3.70;;
51146;SDS011;37207;53.060;18.726;2023-04-24T12:27:39;6.20;;;3.70;;
51146;SDS011;37207;53.060;18.726;2023-04-24T12:30:09;4.90;;;3.10;;
51146;SDS011;37207;53.060;18.726;2023-04-24T12:32:42;7.20;;;3.80;;
51146;SDS011;37207;53.060;18.726;2023-04-24T12:35:09;3.50;;;3.20;;
51146;SDS011;37207;53.060;18.726;2023-04-24T12:37:36;10.80;;;3.70;;
51146;SDS011;37207;53.060;18.726;2023-04-24T12:40:07;3.60;;;3.10;;
51146;SDS011;37207;53.060;18.726;2023-04-24T12:42:35;4.20;;;3.80;;
51146;SDS011;37207;53.060;18.726;2023-04-24T12:45:07;4.10;;;3.50;;
51146;SDS011;37207;53.060;18.726;2023-04-24T12:47:34;3.60;;;3.40;;
51146;SDS011;37207;53.060;18.726;2023-04-24T12:52:29;4.70;;;3.80;;
51146;SDS011;37207;53.060;18.726;2023-04-24T12:54:57;7.10;;;4.10;;
51146;SDS011;37207;53.060;18.726;2023-04-24T12:57:26;6.40;;;3.70;;
51146;SDS011;37207;53.060;18.726;2023-04-24T12:59:57;5.30;;;4.50;;
51146;SDS011;37207;53.060;18.726;2023-04-24T13:02:25;8.40;;;4.90;;
51146;SDS011;37207;53.060;18.726;2023-04-24T13:04:53;6.80;;;4.30;;
51146;SDS011;37207;53.060;18.726;2023-04-24T13:07:20;4.50;;;4.10;;
51146;SDS011;37207;53.060;18.726;2023-04-24T13:09:47;5.40;;;4.40;;
51146;SDS011;37207;53.060;18.726;2023-04-24T13:14:42;4.70;;;3.60;;
51146;SDS011;37207;53.060;18.726;2023-04-24T13:17:09;8.00;;;4.40;;
51146;SDS011;37207;53.060;18.726;2023-04-24T13:19:37;6.50;;;4.20;;
51146;SDS011;37207;53.060;18.726;2023-04-24T13:24:32;5.50;;;4.40;;
51146;SDS011;37207;53.060;18.726;2023-04-24T13:26:59;10.60;;;4.70;;
51146;SDS011;37207;53.060;18.726;2023-04-24T13:29:27;4.40;;;4.10;;
51146;SDS011;37207;53.060;18.726;2023-04-24T13:31:54;4.20;;;3.80;;
51146;SDS011;37207;53.060;18.726;2023-04-24T13:34:22;5.50;;;5.20;;
51146;SDS011;37207;53.060;18.726;2023-04-24T13:36:50;6.90;;;5.20;;
51146;SDS011;37207;53.060;18.726;2023-04-24T13:39:19;5.90;;;5.40;;
51146;SDS011;37207;53.060;18.726;2023-04-24T13:41:46;4.40;;;4.00;;
51146;SDS011;37207;53.060;18.726;2023-04-24T13:44:17;4.20;;;3.90;;
51146;SDS011;37207;53.060;18.726;2023-04-24T13:46:46;4.90;;;4.40;;
51146;SDS011;37207;53.060;18.726;2023-04-24T13:51:41;4.50;;;4.10;;
51146;SDS011;37207;53.060;18.726;2023-04-24T13:54:08;10.00;;;4.10;;
51146;SDS011;37207;53.060;18.726;2023-04-24T13:56:35;4.90;;;4.50;;
51146;SDS011;37207;53.060;18.726;2023-04-24T13:59:02;5.00;;;4.60;;
51146;SDS011;37207;53.060;18.726;2023-04-24T14:01:28;14.00;;;5.00;;
51146;SDS011;37207;53.060;18.726;2023-04-24T14:03:55;5.70;;;5.20;;
51146;SDS011;37207;53.060;18.726;2023-04-24T14:06:22;9.90;;;5.80;;
51146;SDS011;37207;53.060;18.726;2023-04-24T14:08:49;7.40;;;5.40;;
51146;SDS011;37207;53.060;18.726;2023-04-24T14:11:17;20.80;;;5.50;;
51146;SDS011;37207;53.060;18.726;2023-04-24T14:13:45;6.30;;;5.70;;
51146;SDS011;37207;53.060;18.726;2023-04-24T14:16:12;7.10;;;5.90;;
51146;SDS011;37207;53.060;18.726;2023-04-24T14:18:39;6.80;;;6.30;;
51146;SDS011;37207;53.060;18.726;2023-04-24T14:21:05;7.90;;;5.70;;
51146;SDS011;37207;53.060;18.726;2023-04-24T14:23:32;6.00;;;5.50;;
51146;SDS011;37207;53.060;18.726;2023-04-24T14:25:58;9.40;;;5.20;;
51146;SDS011;37207;53.060;18.726;2023-04-24T14:28:25;7.30;;;6.10;;
51146;SDS011;37207;53.060;18.726;2023-04-24T14:30:52;7.20;;;6.70;;
51146;SDS011;37207;53.060;18.726;2023-04-24T14:33:19;7.20;;;6.50;;
51146;SDS011;37207;53.060;18.726;2023-04-24T14:35:46;10.90;;;6.50;;
51146;SDS011;37207;53.060;18.726;2023-04-24T14:38:14;7.40;;;5.90;;
51146;SDS011;37207;53.060;18.726;2023-04-24T14:40:41;7.30;;;6.60;;
51146;SDS011;37207;53.060;18.726;2023-04-24T14:43:08;6.10;;;5.50;;
51146;SDS011;37207;53.060;18.726;2023-04-24T14:45:34;6.80;;;6.30;;
51146;SDS011;37207;53.060;18.726;2023-04-24T14:50:29;15.00;;;8.00;;
51146;SDS011;37207;53.060;18.726;2023-04-24T14:52:56;11.50;;;7.00;;
51146;SDS011;37207;53.060;18.726;2023-04-24T14:55:28;10.50;;;7.70;;
51146;SDS011;37207;53.060;18.726;2023-04-24T14:57:55;7.60;;;6.80;;
51146;SDS011;37207;53.060;18.726;2023-04-24T15:00:21;7.40;;;6.60;;